Time;durP1;ratioP1;P1;durP2;ratioP2;P2;SDS_P1;SDS_P2;PMS_P1;PMS_P2;Temp;Humidity;BMP_temperature;BMP_pressure;BME280_temperature;BME280_humidity;BME280_pressure;Samples;Min_cycle;Max_cycle;Signal;HPM_P1;HPM_P2
2022/05/04 00:01:34;;;;;;;7.70;5.93;;;15.60;99.90;;;;;;5092161;28;20026;-87
2022/05/04 00:04:00;;;;;;;6.40;5.80;;;15.60;99.90;;;;;;5091177;28;20107;-87
2022/05/04 00:06:27;;;;;;;6.55;5.95;;;15.70;99.90;;;;;;5091514;28;20028;-86
2022/05/04 00:08:53;;;;;;;6.63;6.00;;;15.60;99.90;;;;;;5092033;28;20036;-87
2022/05/04 00:11:19;;;;;;;7.38;6.43;;;15.50;99.90;;;;;;5092010;28;20507;-86
2022/05/04 00:13:44;;;;;;;6.60;5.82;;;15.50;99.90;;;;;;5092028;28;20059;-87
2022/05/04 00:16:10;;;;;;;6.72;5.75;;;15.40;99.90;;;;;;5091822;28;20027;-86
2022/05/04 00:18:36;;;;;;;8.73;5.72;;;15.30;99.90;;;;;;5092624;28;20141;-87
2022/05/04 00:21:01;;;;;;;8.40;6.40;;;15.30;99.90;;;;;;5091410;28;20450;-86
2022/05/04 00:23:27;;;;;;;7.00;6.30;;;15.20;99.90;;;;;;5092324;28;20495;-86
2022/05/04 00:25:53;;;;;;;7.47;6.43;;;15.20;99.90;;;;;;5090843;28;20027;-87
2022/05/04 00:28:19;;;;;;;9.18;6.20;;;15.20;99.90;;;;;;5090731;28;20032;-87
2022/05/04 00:30:44;;;;;;;6.63;6.05;;;15.00;99.90;;;;;;5092187;28;20036;-87
2022/05/04 00:33:11;;;;;;;7.25;6.20;;;15.00;99.90;;;;;;5090556;28;20408;-86
2022/05/04 00:35:37;;;;;;;7.00;6.30;;;15.00;99.90;;;;;;5090299;28;20023;-87
2022/05/04 00:38:03;;;;;;;7.22;6.53;;;15.10;99.90;;;;;;5090411;28;20031;-86
2022/05/04 00:40:30;;;;;;;8.25;6.55;;;14.90;99.90;;;;;;5091648;28;20040;-87
2022/05/04 00:42:55;;;;;;;7.13;6.53;;;14.80;99.90;;;;;;5092392;28;20069;-86
2022/05/04 00:45:21;;;;;;;6.50;5.90;;;14.50;99.90;;;;;;5091997;28;20040;-86
2022/05/04 00:47:47;;;;;;;6.78;5.97;;;14.40;99.90;;;;;;5091507;28;20541;-86
2022/05/04 00:50:12;;;;;;;6.95;6.25;;;14.30;99.90;;;;;;5091022;28;20047;-87
2022/05/04 00:52:42;;;;;;;6.95;6.22;;;14.20;99.90;;;;;;5091290;28;20026;-86
2022/05/04 00:55:09;;;;;;;7.10;6.30;;;14.20;99.90;;;;;;5091420;28;20480;-87
2022/05/04 01:00:22;;;;;;;8.27;7.00;;;14.60;99.90;;;;;;5091708;28;20399;-87
2022/05/04 01:02:48;;;;;;;7.38;6.63;;;14.50;99.90;;;;;;5090078;28;20476;-87
2022/05/04 01:05:14;;;;;;;7.22;6.20;;;14.50;99.90;;;;;;5089875;28;20392;-87
2022/05/04 01:07:42;;;;;;;6.47;5.88;;;14.50;99.90;;;;;;5089982;28;20032;-87
2022/05/04 01:10:10;;;;;;;7.00;6.40;;;14.50;99.90;;;;;;5091359;28;20028;-86
2022/05/04 01:12:44;;;;;;;6.82;6.13;;;14.60;99.90;;;;;;5089825;28;20404;-87
2022/05/04 01:15:10;;;;;;;6.95;6.03;;;14.70;99.90;;;;;;5089786;28;20024;-86
2022/05/04 01:17:36;;;;;;;8.20;6.57;;;14.60;99.90;;;;;;5089605;28;20239;-87
2022/05/04 01:20:01;;;;;;;11.65;6.85;;;14.60;99.90;;;;;;5091010;28;20107;-86
2022/05/04 01:22:27;;;;;;;8.60;7.00;;;14.50;99.90;;;;;;5091085;28;20032;-86
2022/05/04 01:24:53;;;;;;;7.75;6.32;;;14.50;99.90;;;;;;5091063;28;20016;-86
2022/05/04 01:27:18;;;;;;;8.45;6.90;;;14.50;99.90;;;;;;5089463;28;20139;-87
2022/05/04 01:29:44;;;;;;;7.88;6.80;;;14.50;99.90;;;;;;5089381;28;20028;-86
2022/05/04 01:32:10;;;;;;;8.90;7.10;;;14.50;99.90;;;;;;5089474;28;20165;-87
2022/05/04 01:34:35;;;;;;;7.32;6.63;;;14.30;99.90;;;;;;5090903;28;20027;-87
2022/05/04 01:37:02;;;;;;;7.95;6.63;;;14.50;99.90;;;;;;5091295;28;20476;-87
2022/05/04 01:39:27;;;;;;;8.77;6.90;;;14.50;99.90;;;;;;5094377;28;20112;-86
2022/05/04 01:44:37;;;;;;;8.45;6.93;;;14.50;99.90;;;;;;5094983;28;20499;-86
2022/05/04 01:47:03;;;;;;;8.93;7.15;;;14.40;99.90;;;;;;5093032;28;20020;-86
2022/05/04 01:49:29;;;;;;;8.32;7.40;;;14.50;99.90;;;;;;5095025;28;20043;-87
2022/05/04 01:51:54;;;;;;;6.70;6.10;;;14.50;99.90;;;;;;5093968;28;20024;-87
2022/05/04 01:54:20;;;;;;;7.47;6.68;;;14.40;99.90;;;;;;5094766;28;20032;-87
2022/05/04 01:56:46;;;;;;;7.68;6.95;;;14.40;99.90;;;;;;5093573;28;20162;-86
2022/05/04 01:59:12;;;;;;;8.05;7.22;;;14.50;99.90;;;;;;5094372;28;20103;-87
2022/05/04 02:01:38;;;;;;;8.13;7.35;;;14.40;99.90;;;;;;5092813;28;20028;-87
2022/05/04 02:04:04;;;;;;;7.93;7.13;;;14.50;99.90;;;;;;5094519;28;20123;-86
2022/05/04 02:06:31;;;;;;;8.45;7.35;;;14.40;99.90;;;;;;5094924;28;20116;-87
2022/05/04 02:08:57;;;;;;;7.90;7.10;;;14.30;99.90;;;;;;5094432;28;20035;-86
2022/05/04 02:11:23;;;;;;;7.40;6.80;;;14.30;99.90;;;;;;5092597;28;20036;-87
2022/05/04 02:13:49;;;;;;;8.50;7.63;;;14.30;99.90;;;;;;5094051;28;20115;-87
2022/05/04 02:16:15;;;;;;;7.03;6.32;;;14.20;99.90;;;;;;5093752;28;20173;-86
2022/05/04 02:18:41;;;;;;;7.65;6.88;;;14.30;99.90;;;;;;5095024;28;20077;-86
2022/05/04 02:21:06;;;;;;;7.88;6.93;;;14.40;99.90;;;;;;5093840;28;20062;-86
2022/05/04 02:23:32;;;;;;;7.47;6.47;;;14.40;99.90;;;;;;5092581;28;20030;-87
2022/05/04 02:25:57;;;;;;;7.75;6.35;;;14.20;99.90;;;;;;5093630;28;20028;-86
2022/05/04 02:28:23;;;;;;;7.50;6.40;;;14.10;99.90;;;;;;5093892;28;20032;-86
2022/05/04 02:30:49;;;;;;;7.90;6.80;;;14.20;99.90;;;;;;5089016;28;20485;-87
2022/05/04 02:33:15;;;;;;;6.90;6.30;;;14.20;99.90;;;;;;5093873;28;20020;-86
2022/05/04 02:38:27;;;;;;;7.22;6.20;;;14.20;99.90;;;;;;5093782;28;20519;-86
2022/05/04 02:40:52;;;;;;;8.48;6.65;;;14.20;99.90;;;;;;5093652;28;20043;-87
2022/05/04 02:43:18;;;;;;;7.05;6.35;;;14.10;99.90;;;;;;5093770;28;20020;-86
2022/05/04 02:45:44;;;;;;;6.63;5.90;;;14.20;99.90;;;;;;5093868;28;20020;-86
2022/05/04 02:48:10;;;;;;;7.43;6.30;;;14.30;99.90;;;;;;5093651;28;20020;-86
2022/05/04 02:50:36;;;;;;;6.57;5.97;;;14.10;99.90;;;;;;5092793;28;20545;-87
2022/05/04 02:53:07;;;;;;;6.95;6.25;;;13.90;99.90;;;;;;5093373;28;20024;-87
2022/05/04 02:55:33;;;;;;;6.85;6.25;;;13.90;99.90;;;;;;5092167;28;20411;-86
2022/05/04 02:58:00;;;;;;;7.28;6.63;;;14.00;99.90;;;;;;5093459;28;20058;-86
2022/05/04 03:00:26;;;;;;;7.30;6.63;;;14.00;99.90;;;;;;5092617;28;20036;-86
2022/05/04 03:02:53;;;;;;;7.60;6.60;;;14.00;99.90;;;;;;5093506;28;20027;-87
2022/05/04 03:05:19;;;;;;;6.93;6.22;;;14.10;99.90;;;;;;5091885;28;20030;-86
2022/05/04 03:07:44;;;;;;;6.65;6.05;;;14.10;99.90;;;;;;5093465;28;20020;-86
2022/05/04 03:10:10;;;;;;;7.53;6.70;;;14.00;99.90;;;;;;5093143;28;20392;-87
2022/05/04 03:12:36;;;;;;;7.75;7.03;;;14.00;99.90;;;;;;5092336;28;20039;-86
2022/05/04 03:15:03;;;;;;;7.57;6.60;;;14.10;99.90;;;;;;5092573;28;20464;-86
2022/05/04 03:17:29;;;;;;;7.70;7.00;;;14.00;99.90;;;;;;5093016;28;20020;-86
2022/05/04 03:19:55;;;;;;;7.13;6.50;;;14.00;99.90;;;;;;5091954;28;20488;-86
2022/05/04 03:22:20;;;;;;;7.60;6.90;;;14.20;99.90;;;;;;5092882;28;20061;-86
2022/05/04 03:24:46;;;;;;;7.15;6.45;;;14.30;99.90;;;;;;5092238;28;20080;-86
2022/05/04 03:27:12;;;;;;;7.72;7.03;;;14.20;99.90;;;;;;5092659;28;20142;-86
2022/05/04 03:29:38;;;;;;;7.60;6.45;;;14.30;99.90;;;;;;5092216;28;20097;-86
2022/05/04 03:32:04;;;;;;;7.05;6.30;;;13.90;99.90;;;;;;5092744;28;20028;-86
2022/05/04 03:34:30;;;;;;;8.02;7.25;;;13.80;99.90;;;;;;5093118;28;20020;-86
2022/05/04 03:36:58;;;;;;;7.25;6.55;;;13.70;99.90;;;;;;5093241;28;20090;-86
2022/05/04 03:39:24;;;;;;;7.40;6.70;;;13.50;99.90;;;;;;5092753;28;20024;-86
2022/05/04 03:41:49;;;;;;;8.32;7.43;;;13.30;99.90;;;;;;5092374;28;20036;-86
2022/05/04 03:44:16;;;;;;;7.95;7.15;;;13.40;99.90;;;;;;5092012;28;20028;-86
2022/05/04 03:46:49;;;;;;;8.43;7.57;;;13.50;99.90;;;;;;5092328;28;20035;-87
2022/05/04 03:49:18;;;;;;;7.50;6.80;;;13.50;99.90;;;;;;5092690;28;20038;-86
2022/05/04 03:51:44;;;;;;;7.53;6.82;;;13.60;99.90;;;;;;5093381;28;20078;-86
2022/05/04 03:54:10;;;;;;;7.50;6.53;;;13.70;99.90;;;;;;5092221;28;20582;-86
2022/05/04 03:56:37;;;;;;;7.18;6.50;;;13.70;99.90;;;;;;5092068;28;20031;-86
2022/05/04 03:59:04;;;;;;;6.78;6.18;;;13.60;99.90;;;;;;5092004;28;20029;-87
2022/05/04 04:01:30;;;;;;;10.25;6.38;;;13.50;99.90;;;;;;5092117;28;20020;-86
2022/05/04 04:03:56;;;;;;;8.18;7.03;;;13.50;99.90;;;;;;5091264;28;20674;-86
2022/05/04 04:06:22;;;;;;;7.05;6.35;;;13.40;99.90;;;;;;5091862;28;20119;-86
2022/05/04 04:08:49;;;;;;;7.82;6.10;;;13.30;99.90;;;;;;5091784;28;20020;-86
2022/05/04 04:11:14;;;;;;;7.70;6.50;;;13.20;99.90;;;;;;5090778;28;20039;-86
2022/05/04 04:13:40;;;;;;;7.05;6.35;;;13.10;99.90;;;;;;5091907;28;20412;-87
2022/05/04 04:16:06;;;;;;;7.03;5.85;;;13.20;99.90;;;;;;5092056;28;20396;-86
2022/05/04 04:18:31;;;;;;;6.95;6.25;;;13.30;99.90;;;;;;5092488;28;20526;-86
2022/05/04 04:23:41;;;;;;;8.48;7.00;;;13.60;99.90;;;;;;5091666;28;20071;-86
2022/05/04 04:26:08;;;;;;;7.57;6.88;;;13.50;99.90;;;;;;5090723;28;20060;-86
2022/05/04 04:28:35;;;;;;;7.80;7.07;;;13.60;99.90;;;;;;5091864;28;20385;-86
2022/05/04 04:31:02;;;;;;;8.52;7.65;;;13.40;99.90;;;;;;5092124;28;20089;-86
2022/05/04 04:33:29;;;;;;;8.70;7.82;;;13.40;99.90;;;;;;5092092;28;20103;-87
2022/05/04 04:35:58;;;;;;;9.88;7.38;;;13.50;99.90;;;;;;5091264;28;20020;-86
2022/05/04 04:38:24;;;;;;;8.30;7.50;;;13.50;99.90;;;;;;5091365;28;20039;-86
2022/05/04 04:40:50;;;;;;;8.07;7.15;;;13.40;99.90;;;;;;5089929;28;20398;-87
2022/05/04 04:43:16;;;;;;;8.05;6.93;;;13.60;99.90;;;;;;5091495;28;20028;-86
2022/05/04 04:45:46;;;;;;;7.45;6.55;;;13.50;99.90;;;;;;5091857;28;20129;-86
2022/05/04 04:48:12;;;;;;;8.48;6.95;;;13.50;99.90;;;;;;5091197;28;20020;-86
2022/05/04 04:50:38;;;;;;;7.90;6.95;;;13.60;99.90;;;;;;5090992;28;20123;-87
2022/05/04 04:53:03;;;;;;;7.95;7.10;;;13.40;99.90;;;;;;5091047;28;20173;-86
2022/05/04 04:55:29;;;;;;;7.65;6.82;;;13.40;99.90;;;;;;5090621;28;20040;-87
2022/05/04 04:57:55;;;;;;;7.80;6.85;;;13.50;99.90;;;;;;5091959;28;20031;-86
2022/05/04 05:00:21;;;;;;;8.25;6.85;;;13.50;99.90;;;;;;5090235;28;20392;-86
2022/05/04 05:02:47;;;;;;;7.65;6.95;;;13.60;99.90;;;;;;5090970;28;20027;-86
2022/05/04 05:05:13;;;;;;;9.63;6.88;;;13.40;99.90;;;;;;5090860;28;20016;-87
2022/05/04 05:07:39;;;;;;;7.32;6.63;;;13.40;99.90;;;;;;5091465;28;20043;-86
2022/05/04 05:10:05;;;;;;;8.73;7.00;;;13.50;99.90;;;;;;5089280;28;20038;-86
2022/05/04 05:12:32;;;;;;;10.07;6.40;;;13.40;99.90;;;;;;5092577;28;20028;-86
2022/05/04 05:17:42;;;;;;;10.70;7.53;;;13.40;99.90;;;;;;5095025;28;20074;-86
2022/05/04 05:20:09;;;;;;;8.88;6.68;;;13.50;99.90;;;;;;5094260;28;20048;-86
2022/05/04 05:22:35;;;;;;;6.78;6.18;;;13.50;99.90;;;;;;5095189;28;20454;-86
2022/05/04 05:25:01;;;;;;;7.45;6.70;;;13.70;99.90;;;;;;5093440;28;20355;-86
2022/05/04 05:27:32;;;;;;;9.25;6.97;;;13.70;99.90;;;;;;5095334;28;20060;-86
2022/05/04 05:29:58;;;;;;;7.72;6.70;;;13.70;99.90;;;;;;5095092;28;20040;-86
2022/05/04 05:32:24;;;;;;;7.57;6.78;;;13.80;99.90;;;;;;5094757;28;20038;-86
2022/05/04 05:34:50;;;;;;;7.57;6.80;;;13.70;99.90;;;;;;5094762;28;20143;-86
2022/05/04 05:37:16;;;;;;;7.40;6.70;;;13.80;99.90;;;;;;5094650;28;20036;-86
2022/05/04 05:39:42;;;;;;;7.38;6.50;;;13.80;99.90;;;;;;5094128;28;20020;-87
2022/05/04 05:42:09;;;;;;;11.35;7.15;;;13.90;99.90;;;;;;5093272;28;20032;-87
2022/05/04 05:44:34;;;;;;;9.82;7.30;;;13.70;99.90;;;;;;5094493;28;20027;-86
2022/05/04 05:47:01;;;;;;;6.75;6.10;;;13.80;99.90;;;;;;5093387;28;20496;-86
2022/05/04 05:49:27;;;;;;;7.95;6.43;;;13.90;99.90;;;;;;5096351;28;20032;-93
2022/05/04 05:51:53;;;;;;;9.38;6.15;;;14.10;99.90;;;;;;5096366;28;20032;-93
2022/05/04 05:54:19;;;;;;;9.40;5.95;;;14.10;99.90;;;;;;5096561;28;20419;-92
2022/05/04 05:56:45;;;;;;;6.70;5.72;;;14.20;99.90;;;;;;5095242;28;20048;-93
2022/05/04 05:59:12;;;;;;;7.60;6.38;;;14.10;99.90;;;;;;5095373;28;20556;-93
2022/05/04 06:01:37;;;;;;;9.02;6.53;;;14.10;99.90;;;;;;5096734;28;20027;-93
2022/05/04 06:04:03;;;;;;;6.30;5.70;;;14.20;99.90;;;;;;5096843;28;20107;-92
2022/05/04 06:06:29;;;;;;;6.72;5.32;;;14.30;99.90;;;;;;5096620;28;20032;-92
2022/05/04 06:08:54;;;;;;;9.07;6.40;;;14.40;99.90;;;;;;5094757;28;20016;-93
2022/05/04 06:11:20;;;;;;;7.50;6.13;;;14.20;99.90;;;;;;5094956;28;20039;-93
2022/05/04 06:13:46;;;;;;;6.75;5.50;;;14.30;99.90;;;;;;5096078;28;20020;-93
2022/05/04 06:16:12;;;;;;;8.63;6.78;;;14.30;99.90;;;;;;5096068;28;20067;-93
2022/05/04 06:18:38;;;;;;;6.38;5.78;;;14.40;99.90;;;;;;5096781;28;20016;-93
2022/05/04 06:21:03;;;;;;;9.23;6.63;;;14.40;99.90;;;;;;5095751;28;20054;-92
2022/05/04 06:23:29;;;;;;;8.98;6.18;;;14.40;99.90;;;;;;5093489;28;20025;-93
2022/05/04 06:25:55;;;;;;;9.68;6.35;;;14.50;99.90;;;;;;5095055;28;20032;-93
2022/05/04 06:28:20;;;;;;;6.97;6.25;;;14.70;99.90;;;;;;5096248;28;20085;-94
2022/05/04 06:36:14;;;;;;;9.82;6.90;;;14.60;99.90;;;;;;5095419;28;20058;-92
2022/05/04 06:38:40;;;;;;;10.30;6.45;;;14.80;99.90;;;;;;5095558;28;20016;-92
2022/05/04 06:41:06;;;;;;;7.60;6.90;;;14.90;99.90;;;;;;5094541;28;20039;-93
2022/05/04 06:43:32;;;;;;;7.45;6.65;;;15.00;99.90;;;;;;5095524;28;20020;-93
2022/05/04 06:45:59;;;;;;;9.55;6.97;;;15.00;99.90;;;;;;5094779;28;20028;-92
2022/05/04 06:48:25;;;;;;;8.50;6.22;;;15.20;99.90;;;;;;5094775;28;20020;-93
2022/05/04 06:50:50;;;;;;;8.18;6.45;;;15.20;99.90;;;;;;5094829;28;20028;-93
2022/05/04 06:53:16;;;;;;;6.65;6.00;;;15.20;99.90;;;;;;5094496;28;20035;-93
2022/05/04 06:55:42;;;;;;;7.53;6.20;;;15.30;99.90;;;;;;5093956;28;20054;-93
2022/05/04 06:58:07;;;;;;;7.32;6.20;;;15.30;99.90;;;;;;5094260;28;20032;-93
2022/05/04 07:00:33;;;;;;;7.78;6.85;;;15.40;99.90;;;;;;5095640;28;20024;-93
2022/05/04 07:02:59;;;;;;;8.73;6.00;;;15.50;99.90;;;;;;5095669;28;20514;-93
2022/05/04 07:05:25;;;;;;;11.88;6.45;;;15.60;99.90;;;;;;5095265;28;20055;-93
2022/05/04 07:07:51;;;;;;;11.95;6.85;;;15.60;99.90;;;;;;5095391;28;20398;-93
2022/05/04 07:10:16;;;;;;;8.07;5.93;;;15.60;99.90;;;;;;5094263;28;20032;-92
2022/05/04 07:12:42;;;;;;;7.55;6.18;;;15.80;99.90;;;;;;5095266;28;20032;-93
2022/05/04 07:15:08;;;;;;;9.25;5.90;;;15.80;99.90;;;;;;5094557;28;20024;-93
2022/05/04 07:17:33;;;;;;;9.73;6.40;;;15.80;99.90;;;;;;5094626;28;20020;-92
2022/05/04 07:19:59;;;;;;;9.52;6.45;;;15.90;99.90;;;;;;5093506;28;20036;-93
2022/05/04 07:22:25;;;;;;;8.32;5.93;;;16.00;99.90;;;;;;5095346;28;20024;-92
2022/05/04 07:24:51;;;;;;;5.85;5.00;;;16.10;99.90;;;;;;5091150;28;20032;-93
2022/05/04 07:27:17;;;;;;;4.47;4.07;;;16.20;99.90;;;;;;5094703;28;20052;-93
2022/05/04 07:29:44;;;;;;;7.80;5.50;;;16.20;99.90;;;;;;5093477;28;20166;-93
2022/05/04 07:32:10;;;;;;;10.35;6.03;;;16.30;99.90;;;;;;5094539;28;20047;-93
2022/05/04 07:34:36;;;;;;;6.55;5.95;;;16.30;99.90;;;;;;5093296;28;20028;-93
2022/05/04 07:37:02;;;;;;;6.35;5.63;;;16.30;99.90;;;;;;5094250;28;20032;-93
2022/05/04 07:42:26;;;;;;;6.90;6.20;;;16.40;99.90;;;;;;5094752;28;20392;-93
2022/05/04 07:45:12;;;;;;;7.68;5.80;;;16.50;99.90;;;;;;5095134;28;20028;-93
2022/05/04 07:47:39;;;;;;;6.82;6.00;;;16.70;99.90;;;;;;5093918;28;20031;-93
2022/05/04 07:50:09;;;;;;;6.72;6.10;;;16.70;99.90;;;;;;5093483;28;20024;-93
2022/05/04 07:52:35;;;;;;;6.30;5.40;;;16.80;99.90;;;;;;5093549;28;20024;-93
2022/05/04 07:55:02;;;;;;;7.28;5.68;;;16.70;99.90;;;;;;5093590;28;20027;-93
2022/05/04 07:57:28;;;;;;;5.65;5.15;;;16.80;99.90;;;;;;5092647;28;20534;-92
2022/05/04 08:05:24;;;;;;;6.25;5.18;;;16.90;99.90;;;;;;5094296;28;20031;-93
2022/05/04 08:07:50;;;;;;;5.70;5.20;;;17.10;99.90;;;;;;5093121;28;20024;-93
2022/05/04 08:10:16;;;;;;;5.13;4.63;;;17.20;99.90;;;;;;5092703;28;20042;-93
2022/05/04 08:12:42;;;;;;;5.13;4.72;;;17.30;99.90;;;;;;5093352;28;20039;-93
2022/05/04 08:15:08;;;;;;;4.53;4.13;;;17.30;99.90;;;;;;5093503;28;20476;-93
2022/05/04 08:17:34;;;;;;;7.18;6.57;;;17.30;99.90;;;;;;5092795;28;20024;-92
2022/05/04 08:20:00;;;;;;;6.28;4.53;;;17.40;99.90;;;;;;5092595;28;20069;-92
2022/05/04 08:22:28;;;;;;;6.45;5.65;;;17.40;99.90;;;;;;5093604;28;20043;-93
2022/05/04 08:24:54;;;;;;;6.22;5.47;;;17.60;99.90;;;;;;5094390;28;20576;-93
2022/05/04 08:27:20;;;;;;;6.10;5.60;;;17.70;99.90;;;;;;5092092;28;20103;-92
2022/05/04 08:29:46;;;;;;;6.70;6.07;;;17.70;99.90;;;;;;5093102;28;20043;-92
2022/05/04 08:32:12;;;;;;;7.07;6.38;;;17.70;99.90;;;;;;5092572;28;20040;-92
2022/05/04 08:34:38;;;;;;;7.00;6.30;;;17.70;99.90;;;;;;5092148;28;20024;-93
2022/05/04 08:37:04;;;;;;;6.85;5.13;;;17.70;99.90;;;;;;5093240;28;20027;-92
2022/05/04 08:39:30;;;;;;;7.18;5.50;;;17.90;99.90;;;;;;5092706;28;20020;-92
2022/05/04 08:41:56;;;;;;;5.15;4.25;;;18.00;99.90;;;;;;5092414;28;20035;-92
2022/05/04 08:44:23;;;;;;;4.72;4.32;;;18.10;99.90;;;;;;5091988;28;20028;-93
2022/05/04 08:46:50;;;;;;;4.93;4.35;;;18.30;99.90;;;;;;5092284;28;20504;-92
2022/05/04 08:49:19;;;;;;;4.97;4.57;;;18.30;99.90;;;;;;5093088;28;20039;-92
2022/05/04 08:51:48;;;;;;;5.18;4.40;;;18.30;99.90;;;;;;5093976;28;20051;-92
2022/05/04 08:54:14;;;;;;;5.38;4.75;;;18.30;99.90;;;;;;5091595;28;20024;-92
2022/05/04 08:56:40;;;;;;;5.43;4.57;;;18.40;99.90;;;;;;5093148;28;20066;-93
2022/05/04 08:59:07;;;;;;;9.23;5.65;;;18.50;99.90;;;;;;5093129;28;20021;-92
2022/05/04 09:01:34;;;;;;;5.90;5.43;;;18.70;99.90;;;;;;5092823;28;20028;-93
2022/05/04 09:03:59;;;;;;;6.88;5.28;;;18.50;99.90;;;;;;5092415;28;20047;-93
2022/05/04 09:06:27;;;;;;;5.80;4.93;;;18.60;99.90;;;;;;5092297;28;20515;-93
2022/05/04 09:08:53;;;;;;;6.28;5.50;;;18.90;99.90;;;;;;5092782;28;20016;-92
2022/05/04 09:11:21;;;;;;;6.10;5.53;;;18.90;99.90;;;;;;5093152;28;20094;-92
2022/05/04 09:13:47;;;;;;;6.22;5.63;;;18.80;99.90;;;;;;5091555;28;20020;-92
2022/05/04 09:16:32;;;;;;;6.07;5.22;;;18.90;99.90;;;;;;5092726;28;20477;-93
2022/05/04 09:19:17;;;;;;;7.00;4.75;;;18.90;99.90;;;;;;5089392;28;20046;-93
2022/05/04 09:21:46;;;;;;;5.97;5.40;;;19.10;99.90;;;;;;5091990;28;20515;-92
2022/05/04 09:24:15;;;;;;;5.40;4.90;;;19.10;99.90;;;;;;5092583;28;20028;-93
2022/05/04 09:26:44;;;;;;;6.25;5.40;;;19.10;99.90;;;;;;5092441;28;20115;-92
2022/05/04 09:29:12;;;;;;;5.60;5.05;;;19.10;99.90;;;;;;5092739;28;20447;-92
2022/05/04 09:31:40;;;;;;;5.80;4.90;;;19.30;99.90;;;;;;5092201;28;20555;-92
2022/05/04 09:34:09;;;;;;;5.13;4.40;;;19.60;99.90;;;;;;5092508;28;20484;-92
2022/05/04 09:44:54;;;;;;;5.40;4.65;;;19.70;99.90;;;;;;5093469;28;20035;-92
2022/05/04 09:45:11;;;;;;;4.38;3.92;;;19.60;99.90;;;;;;5092202;28;20077;-92
2022/05/04 09:47:40;;;;;;;5.15;4.13;;;19.70;99.90;;;;;;5092201;28;20044;-93
2022/05/04 09:50:08;;;;;;;5.15;4.65;;;19.80;99.90;;;;;;5092694;28;20028;-92
2022/05/04 09:53:02;;;;;;;4.90;4.43;;;20.00;99.90;;;;;;5091259;28;20039;-92
2022/05/04 09:55:28;;;;;;;4.45;4.05;;;20.20;99.90;;;;;;5073728;28;20020;-92
2022/05/04 09:57:55;;;;;;;5.18;4.50;;;20.30;99.90;;;;;;5093252;28;20031;-92
2022/05/04 10:00:24;;;;;;;5.38;4.88;;;20.30;99.90;;;;;;5094435;28;20036;-92
2022/05/04 10:02:52;;;;;;;4.65;4.22;;;20.40;99.90;;;;;;5095725;28;20020;-92
2022/05/04 10:05:22;;;;;;;7.28;4.55;;;20.60;99.90;;;;;;5094389;28;20527;-92
2022/05/04 10:07:52;;;;;;;4.75;4.28;;;20.70;99.90;;;;;;5094933;28;20061;-92
2022/05/04 10:10:20;;;;;;;4.90;4.18;;;20.80;99.90;;;;;;5095882;28;20040;-92
2022/05/04 10:12:46;;;;;;;4.55;4.15;;;21.00;99.90;;;;;;5096256;28;20020;-92
2022/05/04 10:15:17;;;;;;;4.60;4.05;;;20.80;99.90;;;;;;5095201;28;20397;-92
2022/05/04 10:18:07;;;;;;;4.80;4.30;;;20.70;99.90;;;;;;5094037;28;20549;-92
2022/05/04 10:20:38;;;;;;;6.68;4.75;;;20.70;99.90;;;;;;5095256;28;20048;-92
2022/05/04 10:23:24;;;;;;;5.15;4.55;;;20.60;99.90;;;;;;5094223;28;20024;-91
2022/05/04 10:25:50;;;;;;;4.82;4.30;;;20.60;99.90;;;;;;5093907;28;20073;-92
2022/05/04 10:28:17;;;;;;;6.57;4.97;;;20.90;99.90;;;;;;5095360;28;20060;-92
2022/05/04 10:30:57;;;;;;;5.70;4.75;;;21.20;99.90;;;;;;5095775;28;20054;-92
2022/05/04 10:33:33;;;;;;;6.25;4.80;;;21.00;99.90;;;;;;5095413;28;20031;-92
2022/05/04 10:36:28;;;;;;;5.75;4.30;;;21.10;99.90;;;;;;5093943;28;20561;-93
2022/05/04 10:38:59;;;;;;;4.78;4.38;;;21.60;99.90;;;;;;5095113;28;20035;-92
2022/05/04 10:41:39;;;;;;;5.13;4.72;;;21.80;99.90;;;;;;5094303;28;20023;-92
2022/05/04 10:44:09;;;;;;;5.90;4.70;;;21.90;99.90;;;;;;5093962;28;20028;-92
2022/05/04 10:46:38;;;;;;;5.10;4.10;;;21.80;99.90;;;;;;5095289;28;20112;-91
2022/05/04 10:49:05;;;;;;;4.97;3.83;;;21.80;99.90;;;;;;5095097;28;20052;-92
2022/05/04 10:51:43;;;;;;;5.38;3.92;;;22.00;99.90;;;;;;5095523;28;20115;-92
2022/05/04 10:54:17;;;;;;;6.57;4.63;;;22.40;99.90;;;;;;5094447;28;20020;-92
2022/05/04 10:56:44;;;;;;;5.28;3.92;;;22.30;99.90;;;;;;5094437;28;20028;-91
2022/05/04 10:59:11;;;;;;;4.07;3.63;;;22.70;99.90;;;;;;5094463;28;20012;-92
2022/05/04 11:01:40;;;;;;;4.32;3.92;;;22.80;99.90;;;;;;5094634;28;20024;-92
2022/05/04 11:04:15;;;;;;;4.97;3.63;;;22.60;99.90;;;;;;5095010;28;20062;-92
2022/05/04 11:06:49;;;;;;;4.13;3.72;;;22.60;99.90;;;;;;5093461;28;20063;-92
2022/05/04 11:09:17;;;;;;;3.90;3.60;;;22.50;99.90;;;;;;5093229;28;20084;-92
2022/05/04 11:11:54;;;;;;;4.57;4.10;;;22.40;99.90;;;;;;5093667;28;20470;-91
2022/05/04 11:14:24;;;;;;;5.22;3.63;;;22.20;99.90;;;;;;5093262;28;20020;-92
2022/05/04 11:16:51;;;;;;;4.05;3.53;;;22.60;99.90;;;;;;5093567;28;20051;-92
2022/05/04 11:19:18;;;;;;;4.05;3.75;;;22.80;99.90;;;;;;5095045;28;20024;-92
2022/05/04 11:21:44;;;;;;;4.38;3.63;;;23.10;99.90;;;;;;5094950;28;20487;-92
2022/05/04 11:24:11;;;;;;;4.30;3.70;;;23.60;99.90;;;;;;5094612;28;20111;-93
2022/05/04 11:26:39;;;;;;;3.58;3.30;;;24.40;99.90;;;;;;5092295;28;20123;-92
2022/05/04 11:29:28;;;;;;;4.35;3.42;;;24.80;99.90;;;;;;5092922;28;20032;-92
2022/05/04 11:32:02;;;;;;;3.88;3.50;;;25.10;99.90;;;;;;5088343;28;20036;-93
2022/05/04 11:34:37;;;;;;;4.88;3.58;;;24.70;99.90;;;;;;5078775;28;20028;-93
2022/05/04 11:37:11;;;;;;;4.03;3.60;;;24.50;99.90;;;;;;5093267;28;20047;-92
2022/05/04 11:39:39;;;;;;;3.60;3.30;;;24.10;99.90;;;;;;5092728;28;20488;-91
2022/05/04 11:42:09;;;;;;;5.82;3.50;;;24.00;99.90;;;;;;5093325;28;20012;-91
2022/05/04 11:44:37;;;;;;;6.13;3.40;;;23.70;99.90;;;;;;5093817;28;20107;-92
2022/05/04 11:47:03;;;;;;;3.60;3.30;;;23.70;99.90;;;;;;5093720;28;20020;-93
2022/05/04 11:49:31;;;;;;;3.50;3.13;;;24.90;99.90;;;;;;5093804;28;20476;-92
2022/05/04 11:51:59;;;;;;;3.97;3.13;;;25.80;99.90;;;;;;5092765;28;20131;-92
2022/05/04 11:54:25;;;;;;;3.80;3.30;;;26.40;99.90;;;;;;5093499;28;20034;-92
2022/05/04 11:56:51;;;;;;;3.85;3.42;;;26.40;99.90;;;;;;5092031;28;20016;-92
2022/05/04 11:59:17;;;;;;;3.30;3.00;;;27.00;99.90;;;;;;5093434;28;20085;-92
2022/05/04 12:01:44;;;;;;;3.45;3.17;;;25.90;99.90;;;;;;5092418;28;20020;-92
2022/05/04 12:04:12;;;;;;;5.15;3.50;;;25.20;99.90;;;;;;5093166;28;20046;-92
2022/05/04 12:06:39;;;;;;;3.60;3.30;;;25.70;99.90;;;;;;5090745;28;20082;-92
2022/05/04 12:09:05;;;;;;;3.47;3.17;;;27.30;99.90;;;;;;5093310;28;20110;-93
2022/05/04 12:11:32;;;;;;;4.15;3.38;;;27.80;99.90;;;;;;5091946;28;20101;-93
2022/05/04 12:13:58;;;;;;;3.80;3.30;;;27.80;99.90;;;;;;5093247;28;20028;-93
2022/05/04 12:16:24;;;;;;;3.45;3.13;;;28.50;99.90;;;;;;5077163;28;20488;-93
2022/05/04 12:18:50;;;;;;;4.55;3.13;;;29.00;99.90;;;;;;5093820;28;20032;-93
2022/05/04 12:21:17;;;;;;;3.50;3.20;;;29.50;99.90;;;;;;5092252;28;20499;-92
2022/05/04 12:23:51;;;;;;;3.60;3.30;;;27.70;99.90;;;;;;5092455;28;20020;-93
2022/05/04 12:26:18;;;;;;;4.05;3.67;;;27.80;99.90;;;;;;5091566;28;20033;-93
2022/05/04 12:34:19;;;;;;;3.85;3.00;;;28.90;99.90;;;;;;5093239;28;20043;-93
2022/05/04 12:36:45;;;;;;;4.45;3.38;;;27.50;99.90;;;;;;5092253;28;20024;-93
2022/05/04 12:39:11;;;;;;;2.92;2.72;;;26.40;99.90;;;;;;5092331;28;20035;-93
2022/05/04 12:41:37;;;;;;;3.13;2.92;;;26.60;99.90;;;;;;5092640;28;20134;-92
2022/05/04 12:44:04;;;;;;;3.40;3.15;;;26.10;99.90;;;;;;5092143;28;20052;-92
2022/05/04 12:46:30;;;;;;;3.88;3.58;;;25.60;99.90;;;;;;5092746;28;20069;-92
2022/05/04 12:48:56;;;;;;;4.28;3.55;;;25.30;99.90;;;;;;5093252;28;20066;-92
2022/05/04 12:51:24;;;;;;;4.03;3.55;;;25.40;99.90;;;;;;5092517;28;20047;-92
2022/05/04 12:53:50;;;;;;;3.67;3.38;;;25.30;99.90;;;;;;5092487;28;20492;-91
2022/05/04 12:59:02;;;;;;;4.40;4.00;;;24.90;99.90;;;;;;5092813;28;20073;-92
2022/05/04 13:01:30;;;;;;;4.25;3.80;;;24.80;99.90;;;;;;5092652;28;20039;-92
2022/05/04 13:03:59;;;;;;;3.50;3.20;;;24.70;99.90;;;;;;5093447;28;20020;-90
2022/05/04 13:06:25;;;;;;;4.10;3.42;;;24.30;99.90;;;;;;5092875;28;20035;-91
2022/05/04 13:08:52;;;;;;;4.53;3.50;;;24.40;99.90;;;;;;5092166;28;20024;-92
2022/05/04 13:11:19;;;;;;;4.57;3.22;;;24.40;99.90;;;;;;5091462;28;20039;-92
2022/05/04 13:13:45;;;;;;;3.70;3.40;;;24.40;99.90;;;;;;5092195;28;20028;-92
2022/05/04 13:16:11;;;;;;;4.75;3.55;;;24.40;99.90;;;;;;5091439;28;20056;-92
2022/05/04 13:18:40;;;;;;;5.80;3.65;;;24.40;99.90;;;;;;5089897;28;20028;-92
2022/05/04 13:21:06;;;;;;;6.47;3.40;;;24.80;99.90;;;;;;5092143;28;20020;-92
2022/05/04 13:23:32;;;;;;;4.07;3.47;;;25.80;99.90;;;;;;5092430;28;20082;-92
2022/05/04 13:25:58;;;;;;;3.83;3.53;;;25.40;99.90;;;;;;5091323;28;20523;-92
2022/05/04 13:28:24;;;;;;;6.95;3.67;;;26.80;99.90;;;;;;5076040;28;20047;-93